createdAt,value
2023-08-27T00:02:00.170Z,21.10
2023-08-27T00:04:02.435Z,21.10
2023-08-27T00:06:04.878Z,20.80
2023-08-27T00:08:07.516Z,20.80
2023-08-27T00:10:10.367Z,20.60
2023-08-27T00:12:12.790Z,20.40
2023-08-27T00:14:14.865Z,20.30
2023-08-27T00:16:17.074Z,20.30
2023-08-27T00:18:19.824Z,20.40
2023-08-27T00:20:22.095Z,20.40
2023-08-27T00:22:24.213Z,20.60
2023-08-27T00:24:26.721Z,20.60
2023-08-27T00:26:28.962Z,20.70
2023-08-27T00:28:31.336Z,20.60
2023-08-27T00:30:33.467Z,20.60
2023-08-27T00:32:35.860Z,20.50
2023-08-27T00:34:38.568Z,20.50
2023-08-27T00:36:40.808Z,20.40
2023-08-27T00:38:43.361Z,20.50
2023-08-27T00:40:45.661Z,20.60
2023-08-27T00:42:48.091Z,20.60
2023-08-27T00:44:50.817Z,20.70
2023-08-27T00:46:53.431Z,20.70
2023-08-27T00:48:56.082Z,20.80
2023-08-27T00:50:58.587Z,20.80
2023-08-27T00:53:01.249Z,20.80
2023-08-27T00:55:04.872Z,20.70
2023-08-27T00:57:07.466Z,20.80
2023-08-27T00:59:10.374Z,20.80
2023-08-27T01:01:13.826Z,20.80
2023-08-27T01:05:21.754Z,20.60
2023-08-27T01:07:39.708Z,20.60
2023-08-27T01:09:48.220Z,20.60
2023-08-27T01:12:12.372Z,20.60
2023-08-27T01:14:17.292Z,20.70
2023-08-27T01:16:24.588Z,20.70
2023-08-27T01:18:28.102Z,20.80
2023-08-27T01:20:32.153Z,20.80
2023-08-27T01:22:34.282Z,20.80
2023-08-27T01:24:36.518Z,20.90
2023-08-27T01:26:58.770Z,20.90
2023-08-27T01:29:15.278Z,20.90
2023-08-27T01:31:23.138Z,21.00
2023-08-27T01:33:30.058Z,20.90
2023-08-27T01:35:34.152Z,21.00
2023-08-27T01:37:37.423Z,20.80
2023-08-27T01:39:40.225Z,20.80
2023-08-27T01:41:42.297Z,20.80
2023-08-27T01:43:44.389Z,20.90
2023-08-27T01:45:47.106Z,20.90
2023-08-27T01:47:49.262Z,20.90
2023-08-27T01:49:52.346Z,21.00
2023-08-27T01:51:54.731Z,21.00
2023-08-27T01:53:56.882Z,21.00
2023-08-27T01:55:59.777Z,21.10
2023-08-27T01:58:02.029Z,21.10
2023-08-27T02:00:10.318Z,21.10
2023-08-27T02:02:12.582Z,21.20
2023-08-27T02:04:14.797Z,21.10
2023-08-27T02:06:17.275Z,21.10
2023-08-27T02:08:19.450Z,21.20
2023-08-27T02:10:21.856Z,21.20
2023-08-27T02:12:23.981Z,21.20
2023-08-27T02:14:26.083Z,21.20
2023-08-27T02:16:28.583Z,21.20
2023-08-27T02:28:44.319Z,20.00
2023-08-27T02:30:55.331Z,20.40
2023-08-27T02:37:04.160Z,20.10
2023-08-27T02:43:11.766Z,20.40
2023-08-27T02:45:14.089Z,19.90
2023-08-27T02:47:17.284Z,19.60
2023-08-27T02:49:19.427Z,19.80
2023-08-27T02:51:22.380Z,20.00
2023-08-27T02:55:31.117Z,20.00
2023-08-27T03:01:38.986Z,19.20
2023-08-27T03:05:43.760Z,19.60
2023-08-27T03:09:51.072Z,20.00
2023-08-27T03:20:04.973Z,18.60
2023-08-27T03:24:10.112Z,19.50
2023-08-27T03:26:12.248Z,18.90
2023-08-27T03:34:22.801Z,19.40
2023-08-27T03:40:31.069Z,19.00
2023-08-27T03:44:37.820Z,19.20
2023-08-27T03:46:41.959Z,18.70
2023-08-27T03:48:44.419Z,19.30
2023-08-27T03:50:47.286Z,19.30
2023-08-27T03:52:50.071Z,19.00
2023-08-27T04:01:01.464Z,18.70
2023-08-27T04:05:07.452Z,18.80
2023-08-27T04:07:10.221Z,19.20
2023-08-27T04:21:30.428Z,18.90
2023-08-27T04:25:37.546Z,19.30
2023-08-27T04:31:45.260Z,18.70
2023-08-27T04:35:53.939Z,18.90
2023-08-27T04:37:56.060Z,19.00
2023-08-27T05:17:04.958Z,19.90
2023-08-27T05:21:09.864Z,20.50
2023-08-27T05:23:12.275Z,20.70
2023-08-27T05:25:14.528Z,20.60
2023-08-27T05:29:19.616Z,22.60
2023-08-27T05:31:22.035Z,21.90
2023-08-27T05:33:25.224Z,21.80
2023-08-27T05:35:27.534Z,22.30
2023-08-27T05:37:29.974Z,22.80
2023-08-27T05:41:34.869Z,23.50
2023-08-27T05:45:40.007Z,25.00
2023-08-27T05:47:42.249Z,24.70
2023-08-27T05:49:45.097Z,24.80
2023-08-27T05:55:56.013Z,23.20
2023-08-27T06:04:06.979Z,23.70
2023-08-27T06:10:14.736Z,22.60
2023-08-27T06:12:17.075Z,23.30
2023-08-27T06:14:19.192Z,22.70
2023-08-27T06:16:21.855Z,22.80
2023-08-27T06:18:24.206Z,23.10
2023-08-27T06:26:34.557Z,22.00
2023-08-27T06:28:36.652Z,21.90
2023-08-27T06:30:45.359Z,22.70
2023-08-27T06:36:53.125Z,23.00
2023-08-27T06:38:55.322Z,22.90
2023-08-27T06:45:05.795Z,22.60
2023-08-27T06:49:10.764Z,22.80
2023-08-27T06:55:18.439Z,24.20
2023-08-27T06:59:24.739Z,24.90
2023-08-27T07:03:31.809Z,25.70
2023-08-27T07:05:35.196Z,26.20
2023-08-27T07:07:39.170Z,26.50
2023-08-27T07:11:44.041Z,25.50
2023-08-27T07:13:49.115Z,25.80
2023-08-27T07:15:52.004Z,25.30
2023-08-27T07:17:54.306Z,25.70
2023-08-27T07:19:56.664Z,25.10
2023-08-27T07:24:01.742Z,25.30
2023-08-27T07:26:05.217Z,25.80
2023-08-27T07:28:07.469Z,25.00
2023-08-27T07:30:10.186Z,25.20
2023-08-27T07:32:12.800Z,25.50
2023-08-27T07:38:20.831Z,26.10
2023-08-27T07:40:23.027Z,25.80
2023-08-27T07:42:25.440Z,26.10
2023-08-27T07:46:31.187Z,26.60
2023-08-27T07:48:33.723Z,26.40
2023-08-27T07:50:36.374Z,26.50
2023-08-27T07:52:38.461Z,26.70
2023-08-27T07:54:40.800Z,27.10
2023-08-27T07:56:43.015Z,27.40
2023-08-27T08:00:48.164Z,28.40
2023-08-27T08:02:50.675Z,28.70
2023-08-27T08:04:53.122Z,28.60
2023-08-27T08:06:55.767Z,28.60
2023-08-27T08:08:58.565Z,28.60
2023-08-27T08:11:01.298Z,28.00
2023-08-27T08:13:04.087Z,28.10
2023-08-27T08:15:07.147Z,28.20
2023-08-27T08:17:11.214Z,29.00
2023-08-27T08:19:13.774Z,28.40
2023-08-27T08:21:15.930Z,28.70
2023-08-27T08:23:18.466Z,27.80
2023-08-27T08:25:23.636Z,28.40
2023-08-27T08:27:26.202Z,29.00
2023-08-27T08:29:28.403Z,28.90
2023-08-27T08:31:30.538Z,28.80
2023-08-27T08:33:33.136Z,28.80
2023-08-27T08:35:36.313Z,29.20
2023-08-27T08:37:38.708Z,28.80
2023-08-27T08:39:41.483Z,29.30
2023-08-27T08:41:55.377Z,29.10
2023-08-27T08:44:04.411Z,29.20
2023-08-27T08:46:08.200Z,29.20
2023-08-27T08:48:13.052Z,29.20
2023-08-27T08:50:16.635Z,28.50
2023-08-27T08:52:19.952Z,28.10
2023-08-27T08:54:25.620Z,27.80
2023-08-27T08:56:39.122Z,28.00
2023-08-27T08:58:46.217Z,27.80
2023-08-27T09:00:48.970Z,27.70
2023-08-27T09:02:52.777Z,27.70
2023-08-27T09:04:56.954Z,28.10
2023-08-27T09:07:00.206Z,28.50
2023-08-27T09:09:03.119Z,28.80
2023-08-27T09:11:05.251Z,28.30
2023-08-27T09:13:07.782Z,28.20
2023-08-27T09:15:10.801Z,27.90
2023-08-27T09:17:14.807Z,28.00
2023-08-27T09:19:17.054Z,27.10
2023-08-27T09:21:19.508Z,27.70
2023-08-27T09:23:21.812Z,28.00
2023-08-27T09:25:24.315Z,28.20
2023-08-27T09:29:31.748Z,27.60
2023-08-27T09:31:41.304Z,27.40
2023-08-27T09:33:44.083Z,28.00
2023-08-27T09:41:57.511Z,28.20
2023-08-27T09:48:06.365Z,28.60
2023-08-27T09:50:16.559Z,28.30
2023-08-27T09:52:25.209Z,29.30
2023-08-27T09:54:32.443Z,27.80
2023-08-27T09:56:38.040Z,27.30
2023-08-27T10:02:55.214Z,28.60
2023-08-27T10:04:57.891Z,28.70
2023-08-27T10:09:06.124Z,28.40
2023-08-27T10:11:10.463Z,28.00
2023-08-27T10:13:20.351Z,27.90
2023-08-27T10:15:27.283Z,28.30
2023-08-27T10:17:38.101Z,28.20
2023-08-27T10:26:00.245Z,28.10
2023-08-27T10:28:03.222Z,27.60
2023-08-27T10:30:09.640Z,28.10
2023-08-27T10:34:14.753Z,27.90
2023-08-27T10:36:24.021Z,27.50
2023-08-27T10:38:30.528Z,27.40
2023-08-27T10:40:35.223Z,27.60
2023-08-27T10:42:38.121Z,27.60
2023-08-27T10:47:03.410Z,27.40
2023-08-27T10:49:17.503Z,27.60
2023-08-27T10:51:22.609Z,27.90
2023-08-27T10:55:36.618Z,27.90
2023-08-27T10:59:43.550Z,28.40
2023-08-27T11:01:54.711Z,28.30
2023-08-27T11:03:58.413Z,28.20
2023-08-27T11:06:15.041Z,28.40
2023-08-27T11:08:17.943Z,28.20
2023-08-27T11:10:20.601Z,27.80
2023-08-27T11:12:26.881Z,28.10
2023-08-27T11:14:29.173Z,28.00
2023-08-27T11:16:31.927Z,28.00
2023-08-27T11:18:50.844Z,27.70
2023-08-27T11:20:55.066Z,28.40
2023-08-27T11:23:02.396Z,28.30
2023-08-27T11:25:07.631Z,28.10
2023-08-27T11:27:11.287Z,27.50
2023-08-27T11:29:13.578Z,28.00
2023-08-27T11:31:16.942Z,28.00
2023-08-27T11:35:30.539Z,28.40
2023-08-27T11:39:37.374Z,28.60
2023-08-27T11:41:42.398Z,28.30
2023-08-27T11:43:44.534Z,28.30
2023-08-27T11:45:46.994Z,28.40
2023-08-27T11:49:57.719Z,27.40
2023-08-27T11:52:00.728Z,28.50
2023-08-27T11:54:11.557Z,28.50
2023-08-27T11:56:18.342Z,28.40
2023-08-27T12:00:23.824Z,28.00
2023-08-27T12:02:26.184Z,27.70
2023-08-27T12:04:29.700Z,27.90
2023-08-27T12:06:32.021Z,27.90
2023-08-27T12:08:37.429Z,27.80
2023-08-27T12:10:46.502Z,28.20
2023-08-27T12:14:53.488Z,28.00
2023-08-27T12:17:01.814Z,28.00
2023-08-27T12:19:09.925Z,27.90
2023-08-27T12:21:12.895Z,27.80
2023-08-27T12:23:15.254Z,27.60
2023-08-27T12:27:24.144Z,27.50
2023-08-27T12:29:32.524Z,27.70
2023-08-27T12:31:34.647Z,27.50
2023-08-27T12:33:41.211Z,27.60
2023-08-27T12:35:47.796Z,28.00
2023-08-27T12:37:50.151Z,28.10
2023-08-27T12:46:00.961Z,28.20
2023-08-27T12:48:06.233Z,28.60
2023-08-27T12:50:10.039Z,27.60
2023-08-27T12:52:12.190Z,28.60
2023-08-27T12:56:17.312Z,28.40
2023-08-27T12:58:19.763Z,28.20
2023-08-27T13:00:22.315Z,28.50
2023-08-27T13:02:24.785Z,29.10
2023-08-27T13:04:30.888Z,28.90
2023-08-27T13:08:36.179Z,29.80
2023-08-27T13:16:49.073Z,29.70
2023-08-27T13:18:51.781Z,30.10
2023-08-27T13:20:53.990Z,29.80
2023-08-27T13:24:59.296Z,29.50
2023-08-27T13:29:05.942Z,29.50
2023-08-27T13:31:09.080Z,29.90
2023-08-27T13:35:14.299Z,29.40
2023-08-27T13:45:26.917Z,29.30
2023-08-27T13:47:29.458Z,29.60
2023-08-27T13:49:31.581Z,29.00
2023-08-27T13:53:36.562Z,28.80
2023-08-27T13:55:39.514Z,29.30
2023-08-27T13:57:42.361Z,29.10
2023-08-27T14:10:03.060Z,28.10
2023-08-27T14:12:06.122Z,28.40
2023-08-27T14:16:15.903Z,28.60
2023-08-27T14:18:18.616Z,28.60
2023-08-27T14:24:30.156Z,28.80
2023-08-27T14:26:33.247Z,28.50
2023-08-27T14:28:35.398Z,28.50
2023-08-27T14:40:52.946Z,28.10
2023-08-27T14:42:55.846Z,28.40
2023-08-27T14:49:04.225Z,28.20
2023-08-27T14:57:14.942Z,29.10
2023-08-27T14:59:39.763Z,28.90
2023-08-27T15:01:41.962Z,28.90
2023-08-27T15:03:45.512Z,29.40
2023-08-27T15:05:48.012Z,28.90
2023-08-27T15:07:50.453Z,29.50
2023-08-27T15:09:52.528Z,29.60
2023-08-27T15:11:55.363Z,29.00
2023-08-27T15:13:57.846Z,29.10
2023-08-27T15:16:00.119Z,29.20
2023-08-27T15:18:02.885Z,28.70
2023-08-27T15:20:05.664Z,29.20
2023-08-27T15:22:08.214Z,29.10
2023-08-27T15:24:10.366Z,28.90
2023-08-27T15:26:12.477Z,28.80
2023-08-27T15:28:14.873Z,28.80
2023-08-27T15:34:22.472Z,28.70
2023-08-27T15:36:25.202Z,29.00
2023-08-27T15:38:27.672Z,28.50
2023-08-27T15:40:29.859Z,28.70
2023-08-27T15:46:38.536Z,29.00
2023-08-27T15:54:49.328Z,28.00
2023-08-27T15:58:55.214Z,27.60
2023-08-27T16:03:00.627Z,29.00
2023-08-27T16:05:02.935Z,28.30
2023-08-27T16:07:05.773Z,28.10
2023-08-27T16:11:11.017Z,28.50
2023-08-27T16:13:13.692Z,28.30
2023-08-27T16:15:16.334Z,28.40
2023-08-27T16:17:19.635Z,28.30
2023-08-27T16:19:22.070Z,28.00
2023-08-27T16:21:25.210Z,28.00
2023-08-27T16:23:28.617Z,27.50
2023-08-27T16:25:30.790Z,27.90
2023-08-27T16:27:32.962Z,27.50
2023-08-27T16:29:35.451Z,27.90
2023-08-27T16:31:37.592Z,27.80
2023-08-27T16:33:40.041Z,27.30
2023-08-27T16:35:42.205Z,27.70
2023-08-27T16:37:47.660Z,27.80
2023-08-27T16:39:49.848Z,27.80
2023-08-27T16:41:54.800Z,27.90
2023-08-27T16:43:59.625Z,27.70
2023-08-27T16:46:02.371Z,27.80
2023-08-27T16:48:05.366Z,27.60
2023-08-27T16:50:09.790Z,27.50
2023-08-27T16:52:11.953Z,27.50
2023-08-27T16:54:15.484Z,27.40
2023-08-27T16:56:25.045Z,26.80
2023-08-27T16:58:27.503Z,27.30
2023-08-27T17:00:30.275Z,26.90
2023-08-27T17:10:48.192Z,27.20
2023-08-27T17:14:53.373Z,27.20
2023-08-27T17:16:55.564Z,27.00
2023-08-27T17:18:58.035Z,27.00
2023-08-27T17:21:01.185Z,27.40
2023-08-27T17:23:03.821Z,26.70
2023-08-27T17:25:06.626Z,27.10
2023-08-27T17:27:09.033Z,26.90
2023-08-27T17:29:17.219Z,27.00
2023-08-27T17:31:19.774Z,26.80
2023-08-27T17:33:21.985Z,26.90
2023-08-27T17:41:33.566Z,26.90
2023-08-27T17:45:38.654Z,26.40
2023-08-27T17:47:46.917Z,26.50
2023-08-27T17:49:51.506Z,26.40
2023-08-27T17:51:53.714Z,26.50
2023-08-27T17:53:56.615Z,26.40
2023-08-27T17:55:58.829Z,26.40
2023-08-27T17:58:02.031Z,26.60
2023-08-27T18:02:07.669Z,26.60
2023-08-27T18:04:10.203Z,26.40
2023-08-27T18:08:19.123Z,26.20
2023-08-27T18:10:21.276Z,26.30
2023-08-27T18:12:23.867Z,26.50
2023-08-27T18:16:29.096Z,26.30
2023-08-27T18:18:31.749Z,26.30
2023-08-27T18:20:34.329Z,26.30
2023-08-27T18:22:36.646Z,26.00
2023-08-27T18:24:38.894Z,26.10
2023-08-27T18:32:50.705Z,26.00
2023-08-27T18:34:53.285Z,26.30
2023-08-27T18:36:55.485Z,25.60
2023-08-27T18:38:57.879Z,25.60
2023-08-27T18:41:00.066Z,26.10
2023-08-27T18:45:06.570Z,25.90
2023-08-27T18:47:08.913Z,25.20
2023-08-27T18:51:14.010Z,25.60
2023-08-27T18:55:19.487Z,25.70
2023-08-27T18:59:24.484Z,25.50
2023-08-27T19:07:35.110Z,26.30
2023-08-27T19:11:40.319Z,25.60
2023-08-27T19:15:45.360Z,25.60
2023-08-27T19:17:47.640Z,25.60
2023-08-27T19:19:50.110Z,24.80
2023-08-27T19:21:52.263Z,25.70
2023-08-27T19:23:55.718Z,25.60
2023-08-27T19:28:15.042Z,25.40
2023-08-27T19:30:17.293Z,25.40
2023-08-27T19:34:22.760Z,25.20
2023-08-27T19:36:25.174Z,25.20
2023-08-27T19:38:27.348Z,25.40
2023-08-27T19:40:29.816Z,25.40
2023-08-27T19:42:31.929Z,25.00
2023-08-27T19:44:34.668Z,25.20
2023-08-27T19:48:39.753Z,25.20
2023-08-27T19:50:42.853Z,25.00
2023-08-27T19:52:45.344Z,25.40
2023-08-27T19:54:47.576Z,24.90
2023-08-27T19:56:50.025Z,24.60
2023-08-27T19:58:52.218Z,24.90
2023-08-27T20:00:54.613Z,24.90
2023-08-27T20:02:57.126Z,24.80
2023-08-27T20:07:02.753Z,25.10
2023-08-27T20:11:09.175Z,24.90
2023-08-27T20:21:28.084Z,24.80
2023-08-27T20:23:31.926Z,24.70
2023-08-27T20:25:34.731Z,24.60
2023-08-27T20:27:36.898Z,24.90
2023-08-27T20:29:39.107Z,24.80
2023-08-27T20:31:41.794Z,24.60
2023-08-27T20:35:47.021Z,24.80
2023-08-27T20:37:49.515Z,24.60
2023-08-27T20:43:57.276Z,24.40
2023-08-27T20:46:00.801Z,24.60
2023-08-27T20:48:04.139Z,24.50
2023-08-27T20:50:07.103Z,24.50
2023-08-27T20:54:12.906Z,24.40
2023-08-27T20:56:15.057Z,24.50
2023-08-27T20:58:17.534Z,24.50
2023-08-27T21:02:22.680Z,24.40
2023-08-27T21:06:28.233Z,24.40
2023-08-27T21:08:30.382Z,24.50
2023-08-27T21:16:40.959Z,24.20
2023-08-27T21:18:43.584Z,24.00
2023-08-27T21:20:45.755Z,24.30
2023-08-27T21:22:48.742Z,23.90
2023-08-27T21:24:50.924Z,24.00
2023-08-27T21:26:53.430Z,24.30
2023-08-27T21:31:12.691Z,24.10
2023-08-27T21:33:16.762Z,24.20
2023-08-27T21:39:24.633Z,24.30
2023-08-27T21:43:29.628Z,23.90
2023-08-27T21:51:40.172Z,23.60
2023-08-27T21:53:42.367Z,24.10
2023-08-27T21:57:47.334Z,24.50
2023-08-27T21:59:50.423Z,23.90
2023-08-27T22:03:55.887Z,24.00
2023-08-27T22:05:58.072Z,24.20
2023-08-27T22:08:00.254Z,24.20
2023-08-27T22:14:08.593Z,24.30
2023-08-27T22:18:13.568Z,24.50
2023-08-27T22:20:15.682Z,24.60
2023-08-27T22:24:20.807Z,24.40
2023-08-27T22:26:23.347Z,24.40
2023-08-27T22:28:25.594Z,24.20
2023-08-27T22:32:31.070Z,24.10
2023-08-27T22:34:33.627Z,24.00
2023-08-27T22:38:39.929Z,23.70
2023-08-27T22:40:42.077Z,23.60
2023-08-27T22:42:44.555Z,23.70
2023-08-27T22:44:46.715Z,23.70
2023-08-27T22:46:49.255Z,23.80
2023-08-27T22:50:54.347Z,23.70
2023-08-27T22:52:56.526Z,23.80
2023-08-27T22:54:59.059Z,24.40
2023-08-27T22:59:03.743Z,23.30
2023-08-27T23:01:06.530Z,23.40
2023-08-27T23:03:08.809Z,23.00
2023-08-27T23:05:11.302Z,23.30
2023-08-27T23:07:13.872Z,23.80
2023-08-27T23:09:16.192Z,23.60
2023-08-27T23:11:18.817Z,23.60
2023-08-27T23:13:21.061Z,23.20
2023-08-27T23:15:23.975Z,23.50
2023-08-27T23:17:26.803Z,23.00
2023-08-27T23:19:29.388Z,23.50
2023-08-27T23:21:31.649Z,23.40
2023-08-27T23:23:34.454Z,23.30
2023-08-27T23:25:37.538Z,23.30
2023-08-27T23:27:41.890Z,23.40
2023-08-27T23:29:46.697Z,23.90
2023-08-27T23:31:49.251Z,23.40
2023-08-27T23:33:51.658Z,23.70
2023-08-27T23:35:54.849Z,22.70
2023-08-27T23:37:57.383Z,23.50
2023-08-27T23:39:59.844Z,22.90
2023-08-27T23:44:05.086Z,23.00
2023-08-27T23:46:07.689Z,22.80
2023-08-27T23:48:11.926Z,23.40
2023-08-27T23:50:14.368Z,23.30
2023-08-27T23:52:16.542Z,23.00
2023-08-27T23:54:18.893Z,23.20
2023-08-27T23:56:21.052Z,23.30
2023-08-27T23:58:24.514Z,22.90
